• Join FlightAware (Why Join?)
  • Login
  • US Flag 
05:24AM EDT


 

Airport Tracker/Info


-or-


 

Live Flight TrackerFlight Track Log ✈ SWA1004 ✈ 18-Jul-2013 ✈ KMCI - KSTL

Flight Track Log - Related Links

Times and Time Zones

All times are in EDT time to prevent confusion due to time zone crossing. See the SWA1004 flight status page for this flight to view local times or setup timezone preferences in your user account.

Time Position Orientation Groundspeed Altitude Reporting Facility
EDT Latitude Longitude Course Direction KTS MPH feet Rate Location/Type
08:09AM 39.2833 -94.6833 94° East 174 200 1,600  Level Kansas City TRACON
08:11AM 39.2792 -94.5978 94° East 217 250 3,600 1,920 Climbing Kansas City Center
08:12AM 39.2508 -94.4983 110° East 269 310 6,100 2,580 Climbing Kansas City Center
08:13AM 39.2158 -94.4144 118° Southeast 277 319 9,000 2,640 Climbing Kansas City Center
08:14AM 39.1786 -94.3264 119° Southeast 289 333 11,500 2,400 Climbing Kansas City Center
08:15AM 39.1292 -94.2106 119° Southeast 331 381 13,800 2,160 Climbing Kansas City Center
08:16AM 39.0911 -94.0986 114° Southeast 354 407 16,000 2,040 Climbing Kansas City Center
08:17AM 39.0839 -93.9514 94° East 368 423 18,100 1,860 Climbing Kansas City Center
08:18AM 39.0750 -93.8192 95° East 384 442 19,800 1,200 Climbing Kansas City Center
08:19AM 39.0600 -93.6783 98° East 417 480 20,600 1,020 Climbing Kansas City Center
08:20AM 39.0347 -93.5064 101° East 439 505 22,000 1,320 Climbing Kansas City Center
08:21AM 39.0150 -93.3522 99° East 452 520 23,400 1,320 Climbing Kansas City Center
08:22AM 38.9928 -93.1956 100° East 457 526 24,800 1,260 Climbing Kansas City Center
08:23AM 38.9642 -92.9994 101° East 459 528 26,000 1,260 Climbing Kansas City Center
08:24AM 38.9400 -92.8314 100° East 466 536 27,500 1,440 Climbing Kansas City Center
08:25AM 38.9164 -92.6611 100° East 475 547 29,000 720 Climbing Kansas City Center
08:26AM 38.8928 -92.4986 101° East 469 540 29,000  Level Kansas City Center
08:27AM 38.8683 -92.3347 101° East 466 536 29,000  Level Kansas City Center
08:28AM 38.8439 -92.1739 101° East 460 529 29,000 -1,320 Level Kansas City Center
08:29AM 38.8192 -92.0131 101° East 458 527 26,400 -2,640 Descending Kansas City Center
08:30AM 38.7936 -91.8486 101° East 464 534 23,700 -3,060 Descending Kansas City Center
08:31AM 38.7686 -91.6847 101° East 439 505 20,100 -3,180 Descending Kansas City Center
08:32AM 38.7461 -91.5367 101° East 429 494 17,200 -2,940 Descending Kansas City Center
08:33AM 38.7219 -91.3925 102° East 420 483 14,200 -2,880 Descending Kansas City Center
08:34AM 38.7003 -91.2542 101° East 405 466 11,400 -1,860 Descending Kansas City Center
08:35AM 38.6958 -91.1294 93° East 362 417 10,400 -960 Descending Kansas City Center
08:36AM 38.7289 -91.0303 67° East 311 358 9,500 -1,200 Descending Kansas City Center
08:37AM 38.7681 -90.9408 61° Northeast 291 335 8,000 -1,260 Descending Kansas City Center
08:38AM 38.8153 -90.8372 60° Northeast 281 323 7,000 -1,560 Descending Kansas City Center
08:39AM 38.8308 -90.7489 77° East 258 297 4,800 -1,680 Descending Kansas City Center
08:40AM 38.8406 -90.6503 83° East 272 313 3,500 -780 Descending Kansas City Center
08:41AM 38.8322 -90.5619 97° East 256 295 3,300 -600 Descending Kansas City Center
08:42AM 38.8075 -90.4875 113° Southeast 239 275 2,400 -840 Descending Kansas City Center
08:43AM 38.7819 -90.4367 123° Southeast 195 224 1,700 -720 Descending Kansas City Center
08:45AM 38.7611 -90.3914 121° Southeast 166 191 900 -540 Descending Kansas City Center
08:46AM 38.7400 -90.3494 123° Southeast 160 184 600 -300 Descending Kansas City Center